sensor_id;sensor_type;location;lat;lon;timestamp;P1;durP1;ratioP1;P2;durP2;ratioP2
78750;SDS011;68070;50.954;11.060;2024-02-28T00:02:23;15.40;;;7.70;;
78750;SDS011;68070;50.954;11.060;2024-02-28T00:04:49;14.10;;;7.90;;
78750;SDS011;68070;50.954;11.060;2024-02-28T00:07:14;16.10;;;9.20;;
78750;SDS011;68070;50.954;11.060;2024-02-28T00:09:39;13.20;;;7.80;;
78750;SDS011;68070;50.954;11.060;2024-02-28T00:14:30;16.40;;;8.40;;
78750;SDS011;68070;50.954;11.060;2024-02-28T00:19:21;13.10;;;7.60;;
78750;SDS011;68070;50.954;11.060;2024-02-28T00:21:47;14.00;;;8.90;;
78750;SDS011;68070;50.954;11.060;2024-02-28T00:24:12;15.90;;;9.30;;
78750;SDS011;68070;50.954;11.060;2024-02-28T00:26:41;16.50;;;8.50;;
78750;SDS011;68070;50.954;11.060;2024-02-28T00:29:07;19.30;;;9.20;;
78750;SDS011;68070;50.954;11.060;2024-02-28T00:31:33;15.80;;;8.40;;
78750;SDS011;68070;50.954;11.060;2024-02-28T00:33:59;19.90;;;9.20;;
78750;SDS011;68070;50.954;11.060;2024-02-28T00:36:24;18.70;;;10.50;;
78750;SDS011;68070;50.954;11.060;2024-02-28T00:41:14;14.80;;;8.20;;
78750;SDS011;68070;50.954;11.060;2024-02-28T00:46:05;17.70;;;9.90;;
78750;SDS011;68070;50.954;11.060;2024-02-28T00:48:36;17.30;;;10.90;;
78750;SDS011;68070;50.954;11.060;2024-02-28T00:51:02;21.60;;;9.80;;
78750;SDS011;68070;50.954;11.060;2024-02-28T00:53:28;18.20;;;8.80;;
78750;SDS011;68070;50.954;11.060;2024-02-28T00:55:53;17.90;;;8.40;;
78750;SDS011;68070;50.954;11.060;2024-02-28T00:58:20;15.40;;;8.90;;
78750;SDS011;68070;50.954;11.060;2024-02-28T01:00:45;14.70;;;10.10;;
78750;SDS011;68070;50.954;11.060;2024-02-28T01:03:11;17.20;;;7.40;;
78750;SDS011;68070;50.954;11.060;2024-02-28T01:05:39;17.70;;;9.70;;
78750;SDS011;68070;50.954;11.060;2024-02-28T01:08:05;21.20;;;9.20;;
78750;SDS011;68070;50.954;11.060;2024-02-28T01:10:31;11.70;;;7.40;;
78750;SDS011;68070;50.954;11.060;2024-02-28T01:12:56;19.90;;;10.60;;
78750;SDS011;68070;50.954;11.060;2024-02-28T01:15:22;19.50;;;11.40;;
78750;SDS011;68070;50.954;11.060;2024-02-28T01:20:13;18.20;;;9.40;;
78750;SDS011;68070;50.954;11.060;2024-02-28T01:25:03;17.30;;;8.10;;
78750;SDS011;68070;50.954;11.060;2024-02-28T01:27:29;13.30;;;7.60;;
78750;SDS011;68070;50.954;11.060;2024-02-28T01:32:19;16.40;;;7.40;;
78750;SDS011;68070;50.954;11.060;2024-02-28T01:34:45;16.70;;;9.50;;
78750;SDS011;68070;50.954;11.060;2024-02-28T01:37:11;16.40;;;8.70;;
78750;SDS011;68070;50.954;11.060;2024-02-28T01:39:36;15.80;;;7.90;;
78750;SDS011;68070;50.954;11.060;2024-02-28T01:44:27;15.80;;;8.00;;
78750;SDS011;68070;50.954;11.060;2024-02-28T01:46:53;19.70;;;9.40;;
78750;SDS011;68070;50.954;11.060;2024-02-28T01:49:21;19.70;;;9.30;;
78750;SDS011;68070;50.954;11.060;2024-02-28T01:51:47;23.10;;;10.90;;
78750;SDS011;68070;50.954;11.060;2024-02-28T01:54:13;21.60;;;11.40;;
78750;SDS011;68070;50.954;11.060;2024-02-28T01:56:39;19.80;;;9.80;;
78750;SDS011;68070;50.954;11.060;2024-02-28T01:59:05;23.70;;;12.10;;
78750;SDS011;68070;50.954;11.060;2024-02-28T02:01:30;20.80;;;11.60;;
78750;SDS011;68070;50.954;11.060;2024-02-28T02:03:56;21.90;;;9.70;;
78750;SDS011;68070;50.954;11.060;2024-02-28T02:08:47;20.80;;;9.10;;
78750;SDS011;68070;50.954;11.060;2024-02-28T02:11:16;16.70;;;8.90;;
78750;SDS011;68070;50.954;11.060;2024-02-28T02:13:47;22.00;;;10.00;;
78750;SDS011;68070;50.954;11.060;2024-02-28T02:16:14;19.20;;;9.00;;
78750;SDS011;68070;50.954;11.060;2024-02-28T02:21:05;20.10;;;9.80;;
78750;SDS011;68070;50.954;11.060;2024-02-28T02:23:31;20.80;;;10.00;;
78750;SDS011;68070;50.954;11.060;2024-02-28T02:25:57;20.60;;;11.10;;
78750;SDS011;68070;50.954;11.060;2024-02-28T02:28:23;23.60;;;10.10;;
78750;SDS011;68070;50.954;11.060;2024-02-28T02:30:48;27.30;;;11.30;;
78750;SDS011;68070;50.954;11.060;2024-02-28T02:35:39;19.10;;;10.50;;
78750;SDS011;68070;50.954;11.060;2024-02-28T02:40:30;15.00;;;7.70;;
78750;SDS011;68070;50.954;11.060;2024-02-28T02:45:20;19.10;;;7.90;;
78750;SDS011;68070;50.954;11.060;2024-02-28T02:50:11;18.50;;;8.00;;
78750;SDS011;68070;50.954;11.060;2024-02-28T02:52:36;21.90;;;9.60;;
78750;SDS011;68070;50.954;11.060;2024-02-28T02:57:27;22.50;;;9.60;;
78750;SDS011;68070;50.954;11.060;2024-02-28T03:02:18;23.50;;;9.90;;
78750;SDS011;68070;50.954;11.060;2024-02-28T03:07:08;23.20;;;9.50;;
78750;SDS011;68070;50.954;11.060;2024-02-28T03:09:34;25.00;;;10.70;;
78750;SDS011;68070;50.954;11.060;2024-02-28T03:14:25;20.10;;;10.30;;
78750;SDS011;68070;50.954;11.060;2024-02-28T03:16:52;19.50;;;10.80;;
78750;SDS011;68070;50.954;11.060;2024-02-28T03:19:18;22.10;;;11.70;;
78750;SDS011;68070;50.954;11.060;2024-02-28T03:21:43;23.40;;;10.90;;
78750;SDS011;68070;50.954;11.060;2024-02-28T03:26:34;22.50;;;11.30;;
78750;SDS011;68070;50.954;11.060;2024-02-28T03:31:25;21.00;;;10.50;;
78750;SDS011;68070;50.954;11.060;2024-02-28T03:33:51;22.30;;;10.20;;
78750;SDS011;68070;50.954;11.060;2024-02-28T03:36:16;22.80;;;11.40;;
78750;SDS011;68070;50.954;11.060;2024-02-28T03:38:41;22.10;;;11.40;;
78750;SDS011;68070;50.954;11.060;2024-02-28T03:43:32;21.50;;;9.40;;
78750;SDS011;68070;50.954;11.060;2024-02-28T03:48:22;17.00;;;8.40;;
78750;SDS011;68070;50.954;11.060;2024-02-28T03:53:13;14.70;;;8.90;;
78750;SDS011;68070;50.954;11.060;2024-02-28T03:55:38;15.40;;;8.50;;
78750;SDS011;68070;50.954;11.060;2024-02-28T03:58:04;14.20;;;8.70;;
78750;SDS011;68070;50.954;11.060;2024-02-28T04:00:32;19.30;;;10.40;;
78750;SDS011;68070;50.954;11.060;2024-02-28T04:05:22;13.00;;;8.60;;
78750;SDS011;68070;50.954;11.060;2024-02-28T04:07:47;12.50;;;8.00;;
78750;SDS011;68070;50.954;11.060;2024-02-28T04:12:38;17.60;;;9.60;;
78750;SDS011;68070;50.954;11.060;2024-02-28T04:17:28;14.70;;;8.90;;
78750;SDS011;68070;50.954;11.060;2024-02-28T04:19:54;13.50;;;8.10;;
78750;SDS011;68070;50.954;11.060;2024-02-28T04:24:44;14.60;;;7.30;;
78750;SDS011;68070;50.954;11.060;2024-02-28T04:27:09;14.00;;;7.50;;
78750;SDS011;68070;50.954;11.060;2024-02-28T04:29:37;12.40;;;8.20;;
78750;SDS011;68070;50.954;11.060;2024-02-28T04:32:03;14.20;;;8.40;;
78750;SDS011;68070;50.954;11.060;2024-02-28T04:34:28;15.30;;;8.70;;
78750;SDS011;68070;50.954;11.060;2024-02-28T04:39:18;13.20;;;7.80;;
78750;SDS011;68070;50.954;11.060;2024-02-28T04:44:09;12.00;;;7.50;;
78750;SDS011;68070;50.954;11.060;2024-02-28T04:46:34;13.10;;;7.70;;
78750;SDS011;68070;50.954;11.060;2024-02-28T04:48:59;14.50;;;8.90;;
78750;SDS011;68070;50.954;11.060;2024-02-28T04:53:50;14.40;;;8.40;;
78750;SDS011;68070;50.954;11.060;2024-02-28T04:58:41;13.70;;;8.30;;
78750;SDS011;68070;50.954;11.060;2024-02-28T05:03:31;13.50;;;8.40;;
78750;SDS011;68070;50.954;11.060;2024-02-28T05:08:22;13.20;;;7.80;;
78750;SDS011;68070;50.954;11.060;2024-02-28T05:10:47;16.50;;;9.50;;
78750;SDS011;68070;50.954;11.060;2024-02-28T05:15:38;14.20;;;9.10;;
78750;SDS011;68070;50.954;11.060;2024-02-28T05:20:28;14.40;;;9.20;;
78750;SDS011;68070;50.954;11.060;2024-02-28T05:25:19;15.00;;;9.50;;
78750;SDS011;68070;50.954;11.060;2024-02-28T05:27:44;17.50;;;9.30;;
78750;SDS011;68070;50.954;11.060;2024-02-28T05:30:09;15.60;;;10.00;;
78750;SDS011;68070;50.954;11.060;2024-02-28T05:32:35;17.80;;;11.00;;
78750;SDS011;68070;50.954;11.060;2024-02-28T05:37:26;14.40;;;8.70;;
78750;SDS011;68070;50.954;11.060;2024-02-28T05:42:17;13.20;;;7.70;;
78750;SDS011;68070;50.954;11.060;2024-02-28T05:44:47;11.50;;;7.40;;
78750;SDS011;68070;50.954;11.060;2024-02-28T05:47:13;11.80;;;7.30;;
78750;SDS011;68070;50.954;11.060;2024-02-28T05:49:38;17.70;;;8.70;;
78750;SDS011;68070;50.954;11.060;2024-02-28T05:54:29;13.40;;;7.90;;
78750;SDS011;68070;50.954;11.060;2024-02-28T05:56:54;13.10;;;8.50;;
78750;SDS011;68070;50.954;11.060;2024-02-28T06:01:45;13.20;;;7.80;;
78750;SDS011;68070;50.954;11.060;2024-02-28T06:06:36;11.70;;;6.30;;
78750;SDS011;68070;50.954;11.060;2024-02-28T06:11:27;13.90;;;7.60;;
78750;SDS011;68070;50.954;11.060;2024-02-28T06:13:52;12.40;;;8.20;;
78750;SDS011;68070;50.954;11.060;2024-02-28T06:18:43;11.70;;;6.00;;
78750;SDS011;68070;50.954;11.060;2024-02-28T06:21:09;13.70;;;7.10;;
78750;SDS011;68070;50.954;11.060;2024-02-28T06:26:00;11.00;;;6.90;;
78750;SDS011;68070;50.954;11.060;2024-02-28T06:28:25;11.90;;;6.80;;
78750;SDS011;68070;50.954;11.060;2024-02-28T06:33:16;12.00;;;6.70;;
78750;SDS011;68070;50.954;11.060;2024-02-28T06:35:41;11.50;;;6.80;;
78750;SDS011;68070;50.954;11.060;2024-02-28T06:38:06;12.00;;;6.90;;
78750;SDS011;68070;50.954;11.060;2024-02-28T06:40:32;14.90;;;7.20;;
78750;SDS011;68070;50.954;11.060;2024-02-28T06:42:58;14.20;;;8.00;;
78750;SDS011;68070;50.954;11.060;2024-02-28T06:45:23;13.50;;;8.00;;
78750;SDS011;68070;50.954;11.060;2024-02-28T06:47:49;15.80;;;9.10;;
78750;SDS011;68070;50.954;11.060;2024-02-28T06:50:16;13.70;;;6.60;;
78750;SDS011;68070;50.954;11.060;2024-02-28T06:52:42;14.40;;;8.20;;
78750;SDS011;68070;50.954;11.060;2024-02-28T06:55:07;14.00;;;8.80;;
78750;SDS011;68070;50.954;11.060;2024-02-28T06:57:37;14.70;;;7.80;;
78750;SDS011;68070;50.954;11.060;2024-02-28T07:00:04;12.40;;;6.80;;
78750;SDS011;68070;50.954;11.060;2024-02-28T07:02:33;11.80;;;7.30;;
78750;SDS011;68070;50.954;11.060;2024-02-28T07:04:59;15.30;;;7.90;;
78750;SDS011;68070;50.954;11.060;2024-02-28T07:07:24;14.10;;;7.00;;
78750;SDS011;68070;50.954;11.060;2024-02-28T07:09:49;12.70;;;7.70;;
78750;SDS011;68070;50.954;11.060;2024-02-28T07:12:15;15.20;;;8.00;;
78750;SDS011;68070;50.954;11.060;2024-02-28T07:14:40;11.20;;;6.90;;
78750;SDS011;68070;50.954;11.060;2024-02-28T07:19:32;13.40;;;8.50;;
78750;SDS011;68070;50.954;11.060;2024-02-28T07:24:22;12.20;;;7.50;;
78750;SDS011;68070;50.954;11.060;2024-02-28T07:26:47;12.10;;;6.50;;
78750;SDS011;68070;50.954;11.060;2024-02-28T07:29:14;15.20;;;7.40;;
78750;SDS011;68070;50.954;11.060;2024-02-28T07:34:05;11.60;;;5.50;;
78750;SDS011;68070;50.954;11.060;2024-02-28T07:36:31;14.00;;;7.30;;
78750;SDS011;68070;50.954;11.060;2024-02-28T07:41:22;11.40;;;6.00;;
78750;SDS011;68070;50.954;11.060;2024-02-28T07:46:12;10.10;;;5.60;;
78750;SDS011;68070;50.954;11.060;2024-02-28T07:51:06;12.00;;;6.30;;
78750;SDS011;68070;50.954;11.060;2024-02-28T07:53:33;11.90;;;7.70;;
78750;SDS011;68070;50.954;11.060;2024-02-28T07:55:58;12.60;;;7.00;;
78750;SDS011;68070;50.954;11.060;2024-02-28T07:58:24;12.10;;;6.70;;
78750;SDS011;68070;50.954;11.060;2024-02-28T08:00:49;13.10;;;7.40;;
78750;SDS011;68070;50.954;11.060;2024-02-28T08:03:17;15.40;;;9.10;;
78750;SDS011;68070;50.954;11.060;2024-02-28T08:05:43;14.20;;;7.40;;
78750;SDS011;68070;50.954;11.060;2024-02-28T08:08:09;23.20;;;13.20;;
78750;SDS011;68070;50.954;11.060;2024-02-28T08:10:36;16.10;;;9.40;;
78750;SDS011;68070;50.954;11.060;2024-02-28T08:13:02;15.00;;;8.40;;
78750;SDS011;68070;50.954;11.060;2024-02-28T08:15:28;15.50;;;8.40;;
78750;SDS011;68070;50.954;11.060;2024-02-28T08:17:53;9.10;;;5.90;;
78750;SDS011;68070;50.954;11.060;2024-02-28T08:20:19;12.40;;;7.30;;
78750;SDS011;68070;50.954;11.060;2024-02-28T08:22:44;11.40;;;7.90;;
78750;SDS011;68070;50.954;11.060;2024-02-28T08:25:11;12.90;;;7.30;;
78750;SDS011;68070;50.954;11.060;2024-02-28T08:27:37;12.70;;;8.00;;
78750;SDS011;68070;50.954;11.060;2024-02-28T08:30:03;14.80;;;7.90;;
78750;SDS011;68070;50.954;11.060;2024-02-28T08:32:30;11.70;;;7.40;;
78750;SDS011;68070;50.954;11.060;2024-02-28T08:34:56;11.50;;;7.20;;
78750;SDS011;68070;50.954;11.060;2024-02-28T08:37:23;13.10;;;8.20;;
78750;SDS011;68070;50.954;11.060;2024-02-28T08:39:48;14.50;;;8.50;;
78750;SDS011;68070;50.954;11.060;2024-02-28T08:42:13;13.80;;;8.10;;
78750;SDS011;68070;50.954;11.060;2024-02-28T08:44:39;12.40;;;8.20;;
78750;SDS011;68070;50.954;11.060;2024-02-28T08:47:05;14.60;;;8.40;;
78750;SDS011;68070;50.954;11.060;2024-02-28T08:49:33;15.50;;;8.00;;
78750;SDS011;68070;50.954;11.060;2024-02-28T08:51:58;15.20;;;8.00;;
78750;SDS011;68070;50.954;11.060;2024-02-28T08:54:23;17.70;;;10.60;;
78750;SDS011;68070;50.954;11.060;2024-02-28T08:56:49;12.90;;;8.00;;
78750;SDS011;68070;50.954;11.060;2024-02-28T08:59:14;14.30;;;9.40;;
78750;SDS011;68070;50.954;11.060;2024-02-28T09:01:39;12.90;;;8.50;;
78750;SDS011;68070;50.954;11.060;2024-02-28T09:04:06;16.40;;;10.20;;
78750;SDS011;68070;50.954;11.060;2024-02-28T09:06:32;15.20;;;9.90;;
78750;SDS011;68070;50.954;11.060;2024-02-28T09:08:57;12.80;;;7.70;;
78750;SDS011;68070;50.954;11.060;2024-02-28T09:11:23;15.00;;;8.80;;
78750;SDS011;68070;50.954;11.060;2024-02-28T09:13:48;12.60;;;8.30;;
78750;SDS011;68070;50.954;11.060;2024-02-28T09:16:13;14.90;;;10.00;;
78750;SDS011;68070;50.954;11.060;2024-02-28T09:18:38;20.10;;;11.00;;
78750;SDS011;68070;50.954;11.060;2024-02-28T09:21:04;15.20;;;9.80;;
78750;SDS011;68070;50.954;11.060;2024-02-28T09:23:29;14.30;;;10.80;;
78750;SDS011;68070;50.954;11.060;2024-02-28T09:25:56;16.00;;;11.40;;
78750;SDS011;68070;50.954;11.060;2024-02-28T09:28:21;14.60;;;10.70;;
78750;SDS011;68070;50.954;11.060;2024-02-28T09:30:46;14.30;;;10.50;;
78750;SDS011;68070;50.954;11.060;2024-02-28T09:33:12;16.30;;;12.20;;
78750;SDS011;68070;50.954;11.060;2024-02-28T09:35:38;16.60;;;11.60;;
78750;SDS011;68070;50.954;11.060;2024-02-28T09:38:03;12.80;;;9.90;;
78750;SDS011;68070;50.954;11.060;2024-02-28T09:40:30;14.70;;;10.60;;
78750;SDS011;68070;50.954;11.060;2024-02-28T09:43:00;16.20;;;12.00;;
78750;SDS011;68070;50.954;11.060;2024-02-28T09:45:28;15.80;;;11.60;;
78750;SDS011;68070;50.954;11.060;2024-02-28T09:47:56;14.90;;;10.50;;
78750;SDS011;68070;50.954;11.060;2024-02-28T09:50:22;17.10;;;12.20;;
78750;SDS011;68070;50.954;11.060;2024-02-28T09:52:50;16.30;;;11.40;;
78750;SDS011;68070;50.954;11.060;2024-02-28T09:55:15;15.10;;;10.80;;
78750;SDS011;68070;50.954;11.060;2024-02-28T09:57:41;15.80;;;11.50;;
78750;SDS011;68070;50.954;11.060;2024-02-28T10:00:08;15.20;;;11.10;;
78750;SDS011;68070;50.954;11.060;2024-02-28T10:02:35;15.20;;;11.70;;
78750;SDS011;68070;50.954;11.060;2024-02-28T10:05:02;17.50;;;12.60;;
78750;SDS011;68070;50.954;11.060;2024-02-28T10:07:29;19.20;;;11.80;;
78750;SDS011;68070;50.954;11.060;2024-02-28T10:09:56;15.90;;;11.70;;
78750;SDS011;68070;50.954;11.060;2024-02-28T10:12:21;17.20;;;11.70;;
78750;SDS011;68070;50.954;11.060;2024-02-28T10:14:49;19.80;;;12.40;;
78750;SDS011;68070;50.954;11.060;2024-02-28T10:17:15;16.60;;;11.90;;
78750;SDS011;68070;50.954;11.060;2024-02-28T10:19:40;18.50;;;13.00;;
78750;SDS011;68070;50.954;11.060;2024-02-28T10:22:06;16.70;;;11.50;;
78750;SDS011;68070;50.954;11.060;2024-02-28T10:24:32;17.80;;;11.40;;
78750;SDS011;68070;50.954;11.060;2024-02-28T10:27:00;16.70;;;12.00;;
78750;SDS011;68070;50.954;11.060;2024-02-28T10:29:26;18.00;;;12.80;;
78750;SDS011;68070;50.954;11.060;2024-02-28T10:31:54;18.10;;;13.40;;
78750;SDS011;68070;50.954;11.060;2024-02-28T10:34:20;17.70;;;12.40;;
78750;SDS011;68070;50.954;11.060;2024-02-28T10:36:45;17.30;;;12.10;;
78750;SDS011;68070;50.954;11.060;2024-02-28T10:39:11;16.30;;;12.20;;
78750;SDS011;68070;50.954;11.060;2024-02-28T10:41:38;17.10;;;13.00;;
78750;SDS011;68070;50.954;11.060;2024-02-28T10:44:04;17.20;;;11.70;;
78750;SDS011;68070;50.954;11.060;2024-02-28T10:46:33;15.20;;;11.20;;
78750;SDS011;68070;50.954;11.060;2024-02-28T10:48:58;15.90;;;11.70;;
78750;SDS011;68070;50.954;11.060;2024-02-28T10:51:24;18.70;;;12.60;;
78750;SDS011;68070;50.954;11.060;2024-02-28T10:54:09;17.20;;;11.70;;
78750;SDS011;68070;50.954;11.060;2024-02-28T10:56:38;18.60;;;12.20;;
78750;SDS011;68070;50.954;11.060;2024-02-28T10:59:07;17.80;;;11.80;;
78750;SDS011;68070;50.954;11.060;2024-02-28T11:01:35;17.80;;;11.90;;
78750;SDS011;68070;50.954;11.060;2024-02-28T11:04:02;20.50;;;12.50;;
78750;SDS011;68070;50.954;11.060;2024-02-28T11:06:28;14.80;;;10.80;;
78750;SDS011;68070;50.954;11.060;2024-02-28T11:08:54;17.70;;;12.20;;
78750;SDS011;68070;50.954;11.060;2024-02-28T11:11:19;17.80;;;12.20;;
78750;SDS011;68070;50.954;11.060;2024-02-28T11:13:55;15.60;;;11.70;;
78750;SDS011;68070;50.954;11.060;2024-02-28T11:16:31;15.40;;;10.90;;
78750;SDS011;68070;50.954;11.060;2024-02-28T11:18:58;16.50;;;11.30;;
78750;SDS011;68070;50.954;11.060;2024-02-28T11:21:25;15.00;;;10.80;;
78750;SDS011;68070;50.954;11.060;2024-02-28T11:23:52;16.10;;;11.10;;
78750;SDS011;68070;50.954;11.060;2024-02-28T11:28:49;14.60;;;9.50;;
78750;SDS011;68070;50.954;11.060;2024-02-28T11:31:14;11.60;;;9.20;;
78750;SDS011;68070;50.954;11.060;2024-02-28T11:33:40;11.50;;;8.50;;
78750;SDS011;68070;50.954;11.060;2024-02-28T11:36:05;11.00;;;8.30;;
78750;SDS011;68070;50.954;11.060;2024-02-28T11:38:31;12.30;;;8.60;;
78750;SDS011;68070;50.954;11.060;2024-02-28T11:41:03;13.30;;;10.20;;
78750;SDS011;68070;50.954;11.060;2024-02-28T11:43:28;13.70;;;10.80;;
78750;SDS011;68070;50.954;11.060;2024-02-28T11:45:55;10.90;;;8.20;;
78750;SDS011;68070;50.954;11.060;2024-02-28T11:48:21;11.60;;;8.60;;
78750;SDS011;68070;50.954;11.060;2024-02-28T11:50:46;10.20;;;6.50;;
78750;SDS011;68070;50.954;11.060;2024-02-28T11:53:11;10.10;;;7.60;;
78750;SDS011;68070;50.954;11.060;2024-02-28T11:55:37;10.20;;;7.80;;
78750;SDS011;68070;50.954;11.060;2024-02-28T11:58:07;11.10;;;8.50;;
78750;SDS011;68070;50.954;11.060;2024-02-28T12:00:33;9.20;;;7.60;;
78750;SDS011;68070;50.954;11.060;2024-02-28T12:03:05;7.50;;;6.70;;
78750;SDS011;68070;50.954;11.060;2024-02-28T12:05:31;11.10;;;7.40;;
78750;SDS011;68070;50.954;11.060;2024-02-28T12:07:56;10.80;;;8.50;;
78750;SDS011;68070;50.954;11.060;2024-02-28T12:10:23;9.70;;;8.30;;
78750;SDS011;68070;50.954;11.060;2024-02-28T12:12:50;9.60;;;7.70;;
78750;SDS011;68070;50.954;11.060;2024-02-28T12:15:15;9.40;;;7.60;;
78750;SDS011;68070;50.954;11.060;2024-02-28T12:17:42;9.70;;;7.90;;
78750;SDS011;68070;50.954;11.060;2024-02-28T12:20:08;9.00;;;7.80;;
78750;SDS011;68070;50.954;11.060;2024-02-28T12:22:34;8.40;;;7.10;;
78750;SDS011;68070;50.954;11.060;2024-02-28T12:24:59;8.50;;;6.70;;
78750;SDS011;68070;50.954;11.060;2024-02-28T12:27:29;9.40;;;8.30;;
78750;SDS011;68070;50.954;11.060;2024-02-28T12:29:56;12.10;;;9.80;;
78750;SDS011;68070;50.954;11.060;2024-02-28T12:32:21;11.10;;;8.80;;
78750;SDS011;68070;50.954;11.060;2024-02-28T12:34:47;9.80;;;7.10;;
78750;SDS011;68070;50.954;11.060;2024-02-28T12:37:12;8.40;;;7.10;;
78750;SDS011;68070;50.954;11.060;2024-02-28T12:39:37;9.00;;;7.50;;
78750;SDS011;68070;50.954;11.060;2024-02-28T12:42:03;10.70;;;8.70;;
78750;SDS011;68070;50.954;11.060;2024-02-28T12:44:29;10.40;;;8.90;;
78750;SDS011;68070;50.954;11.060;2024-02-28T12:46:54;15.40;;;10.90;;
78750;SDS011;68070;50.954;11.060;2024-02-28T12:49:19;9.70;;;8.10;;
78750;SDS011;68070;50.954;11.060;2024-02-28T12:51:45;10.30;;;8.30;;
78750;SDS011;68070;50.954;11.060;2024-02-28T12:54:13;9.30;;;7.20;;
78750;SDS011;68070;50.954;11.060;2024-02-28T12:56:41;8.10;;;7.00;;
78750;SDS011;68070;50.954;11.060;2024-02-28T12:59:09;8.00;;;7.20;;
78750;SDS011;68070;50.954;11.060;2024-02-28T13:01:35;11.20;;;8.10;;
78750;SDS011;68070;50.954;11.060;2024-02-28T13:04:00;10.30;;;7.90;;
78750;SDS011;68070;50.954;11.060;2024-02-28T13:06:27;11.50;;;10.10;;
78750;SDS011;68070;50.954;11.060;2024-02-28T13:08:52;10.30;;;7.80;;
78750;SDS011;68070;50.954;11.060;2024-02-28T13:11:21;10.20;;;8.60;;
78750;SDS011;68070;50.954;11.060;2024-02-28T13:13:48;11.10;;;8.90;;
78750;SDS011;68070;50.954;11.060;2024-02-28T13:16:14;16.00;;;12.40;;
78750;SDS011;68070;50.954;11.060;2024-02-28T13:18:40;12.00;;;10.00;;
78750;SDS011;68070;50.954;11.060;2024-02-28T13:21:06;23.50;;;15.00;;
78750;SDS011;68070;50.954;11.060;2024-02-28T13:23:31;8.90;;;7.70;;
78750;SDS011;68070;50.954;11.060;2024-02-28T13:25:56;8.60;;;7.70;;
78750;SDS011;68070;50.954;11.060;2024-02-28T13:28:22;9.60;;;7.20;;
78750;SDS011;68070;50.954;11.060;2024-02-28T13:30:55;8.20;;;7.40;;
78750;SDS011;68070;50.954;11.060;2024-02-28T13:33:24;9.90;;;8.20;;
78750;SDS011;68070;50.954;11.060;2024-02-28T13:35:50;10.20;;;9.10;;
78750;SDS011;68070;50.954;11.060;2024-02-28T13:38:15;8.40;;;7.40;;
78750;SDS011;68070;50.954;11.060;2024-02-28T13:40:40;9.70;;;7.50;;
78750;SDS011;68070;50.954;11.060;2024-02-28T13:43:06;7.60;;;6.70;;
78750;SDS011;68070;50.954;11.060;2024-02-28T13:45:32;6.50;;;5.60;;
78750;SDS011;68070;50.954;11.060;2024-02-28T13:47:57;7.20;;;5.90;;
78750;SDS011;68070;50.954;11.060;2024-02-28T13:50:23;6.90;;;6.10;;
78750;SDS011;68070;50.954;11.060;2024-02-28T13:52:56;6.80;;;6.10;;
78750;SDS011;68070;50.954;11.060;2024-02-28T13:55:22;8.90;;;7.10;;
78750;SDS011;68070;50.954;11.060;2024-02-28T13:57:47;8.20;;;6.20;;
78750;SDS011;68070;50.954;11.060;2024-02-28T14:00:13;7.40;;;6.40;;
78750;SDS011;68070;50.954;11.060;2024-02-28T14:02:39;8.00;;;6.90;;
78750;SDS011;68070;50.954;11.060;2024-02-28T14:05:04;7.60;;;6.60;;
78750;SDS011;68070;50.954;11.060;2024-02-28T14:07:32;9.00;;;8.10;;
78750;SDS011;68070;50.954;11.060;2024-02-28T14:09:58;7.70;;;6.90;;
78750;SDS011;68070;50.954;11.060;2024-02-28T14:12:24;7.90;;;6.60;;
78750;SDS011;68070;50.954;11.060;2024-02-28T14:14:49;8.80;;;7.00;;
78750;SDS011;68070;50.954;11.060;2024-02-28T14:17:14;9.00;;;6.30;;
78750;SDS011;68070;50.954;11.060;2024-02-28T14:19:40;8.10;;;7.20;;
78750;SDS011;68070;50.954;11.060;2024-02-28T14:22:05;7.20;;;6.40;;
78750;SDS011;68070;50.954;11.060;2024-02-28T14:24:32;8.40;;;6.70;;
78750;SDS011;68070;50.954;11.060;2024-02-28T14:26:57;7.80;;;7.00;;
78750;SDS011;68070;50.954;11.060;2024-02-28T14:29:23;7.80;;;6.30;;
78750;SDS011;68070;50.954;11.060;2024-02-28T14:31:48;7.70;;;6.50;;
78750;SDS011;68070;50.954;11.060;2024-02-28T14:34:14;7.90;;;6.20;;
78750;SDS011;68070;50.954;11.060;2024-02-28T14:36:39;7.40;;;6.30;;
78750;SDS011;68070;50.954;11.060;2024-02-28T14:39:04;7.80;;;7.00;;
78750;SDS011;68070;50.954;11.060;2024-02-28T14:41:29;7.00;;;5.90;;
78750;SDS011;68070;50.954;11.060;2024-02-28T14:43:57;7.60;;;6.40;;
78750;SDS011;68070;50.954;11.060;2024-02-28T14:46:22;7.50;;;6.50;;
78750;SDS011;68070;50.954;11.060;2024-02-28T14:48:47;6.60;;;5.90;;
78750;SDS011;68070;50.954;11.060;2024-02-28T14:51:19;7.00;;;6.30;;
78750;SDS011;68070;50.954;11.060;2024-02-28T14:53:45;8.10;;;6.00;;
78750;SDS011;68070;50.954;11.060;2024-02-28T14:56:12;7.40;;;5.90;;
78750;SDS011;68070;50.954;11.060;2024-02-28T14:58:38;8.10;;;6.20;;
78750;SDS011;68070;50.954;11.060;2024-02-28T15:01:04;8.40;;;6.20;;
78750;SDS011;68070;50.954;11.060;2024-02-28T15:03:30;8.00;;;7.00;;
78750;SDS011;68070;50.954;11.060;2024-02-28T15:05:55;7.20;;;6.30;;
78750;SDS011;68070;50.954;11.060;2024-02-28T15:08:21;9.20;;;6.40;;
78750;SDS011;68070;50.954;11.060;2024-02-28T15:10:46;8.90;;;6.90;;
78750;SDS011;68070;50.954;11.060;2024-02-28T15:13:11;8.50;;;6.40;;
78750;SDS011;68070;50.954;11.060;2024-02-28T15:15:37;21.10;;;9.70;;
78750;SDS011;68070;50.954;11.060;2024-02-28T15:18:02;10.50;;;6.90;;
78750;SDS011;68070;50.954;11.060;2024-02-28T15:20:27;18.10;;;9.50;;
78750;SDS011;68070;50.954;11.060;2024-02-28T15:22:53;9.70;;;6.70;;
78750;SDS011;68070;50.954;11.060;2024-02-28T15:25:18;8.70;;;7.20;;
78750;SDS011;68070;50.954;11.060;2024-02-28T15:27:43;11.00;;;7.50;;
78750;SDS011;68070;50.954;11.060;2024-02-28T15:30:09;9.30;;;7.20;;
78750;SDS011;68070;50.954;11.060;2024-02-28T15:32:34;8.80;;;7.20;;
78750;SDS011;68070;50.954;11.060;2024-02-28T15:35:04;9.10;;;7.20;;
78750;SDS011;68070;50.954;11.060;2024-02-28T15:37:30;8.60;;;7.10;;
78750;SDS011;68070;50.954;11.060;2024-02-28T15:39:55;10.80;;;7.10;;
78750;SDS011;68070;50.954;11.060;2024-02-28T15:42:21;9.80;;;7.50;;
78750;SDS011;68070;50.954;11.060;2024-02-28T15:44:46;10.50;;;6.80;;
78750;SDS011;68070;50.954;11.060;2024-02-28T15:47:12;9.90;;;7.50;;
78750;SDS011;68070;50.954;11.060;2024-02-28T15:49:37;9.20;;;7.10;;
78750;SDS011;68070;50.954;11.060;2024-02-28T15:52:02;9.30;;;6.80;;
78750;SDS011;68070;50.954;11.060;2024-02-28T15:54:30;11.80;;;7.60;;
78750;SDS011;68070;50.954;11.060;2024-02-28T15:56:56;10.10;;;7.10;;
78750;SDS011;68070;50.954;11.060;2024-02-28T15:59:24;8.70;;;6.80;;
78750;SDS011;68070;50.954;11.060;2024-02-28T16:01:51;12.80;;;7.40;;
78750;SDS011;68070;50.954;11.060;2024-02-28T16:04:16;13.00;;;8.00;;
78750;SDS011;68070;50.954;11.060;2024-02-28T16:06:41;10.40;;;6.60;;
78750;SDS011;68070;50.954;11.060;2024-02-28T16:09:07;9.20;;;6.80;;
78750;SDS011;68070;50.954;11.060;2024-02-28T16:11:34;10.40;;;7.90;;
78750;SDS011;68070;50.954;11.060;2024-02-28T16:13:59;8.90;;;7.00;;
78750;SDS011;68070;50.954;11.060;2024-02-28T16:16:25;10.10;;;6.90;;
78750;SDS011;68070;50.954;11.060;2024-02-28T16:18:52;10.20;;;6.70;;
78750;SDS011;68070;50.954;11.060;2024-02-28T16:21:18;10.20;;;7.30;;